sensor_id;sensor_type;location;lat;lon;timestamp;P1;durP1;ratioP1;P2;durP2;ratioP2
51475;SDS011;37554;50.362;7.568;2023-05-07T00:02:02;1.65;;;0.80;;
51475;SDS011;37554;50.362;7.568;2023-05-07T00:04:28;0.95;;;0.70;;
51475;SDS011;37554;50.362;7.568;2023-05-07T00:07:01;2.30;;;0.88;;
51475;SDS011;37554;50.362;7.568;2023-05-07T00:09:26;2.20;;;0.82;;
51475;SDS011;37554;50.362;7.568;2023-05-07T00:11:52;1.13;;;0.90;;
51475;SDS011;37554;50.362;7.568;2023-05-07T00:14:18;2.00;;;1.05;;
51475;SDS011;37554;50.362;7.568;2023-05-07T00:16:43;1.45;;;0.90;;
51475;SDS011;37554;50.362;7.568;2023-05-07T00:19:09;1.65;;;0.90;;
51475;SDS011;37554;50.362;7.568;2023-05-07T00:21:34;0.70;;;0.70;;
51475;SDS011;37554;50.362;7.568;2023-05-07T00:24:00;2.08;;;0.75;;
51475;SDS011;37554;50.362;7.568;2023-05-07T00:26:26;3.88;;;0.90;;
51475;SDS011;37554;50.362;7.568;2023-05-07T00:28:51;1.23;;;0.70;;
51475;SDS011;37554;50.362;7.568;2023-05-07T00:31:17;1.58;;;0.60;;
51475;SDS011;37554;50.362;7.568;2023-05-07T00:33:42;0.82;;;0.50;;
51475;SDS011;37554;50.362;7.568;2023-05-07T00:36:08;3.00;;;0.95;;
51475;SDS011;37554;50.362;7.568;2023-05-07T00:38:34;1.10;;;0.80;;
51475;SDS011;37554;50.362;7.568;2023-05-07T00:41:00;1.20;;;0.80;;
51475;SDS011;37554;50.362;7.568;2023-05-07T00:43:27;0.90;;;0.75;;
51475;SDS011;37554;50.362;7.568;2023-05-07T00:45:53;3.00;;;0.57;;
51475;SDS011;37554;50.362;7.568;2023-05-07T00:48:19;1.40;;;0.88;;
51475;SDS011;37554;50.362;7.568;2023-05-07T00:50:45;0.95;;;0.70;;
51475;SDS011;37554;50.362;7.568;2023-05-07T00:53:12;1.02;;;0.80;;
51475;SDS011;37554;50.362;7.568;2023-05-07T00:55:38;1.58;;;0.80;;
51475;SDS011;37554;50.362;7.568;2023-05-07T00:58:04;1.30;;;0.88;;
51475;SDS011;37554;50.362;7.568;2023-05-07T01:00:30;2.30;;;0.90;;
51475;SDS011;37554;50.362;7.568;2023-05-07T01:02:56;1.50;;;0.85;;
51475;SDS011;37554;50.362;7.568;2023-05-07T01:05:23;1.35;;;0.68;;
51475;SDS011;37554;50.362;7.568;2023-05-07T01:07:50;2.38;;;0.90;;
51475;SDS011;37554;50.362;7.568;2023-05-07T01:10:18;1.48;;;0.80;;
51475;SDS011;37554;50.362;7.568;2023-05-07T01:12:44;1.08;;;0.70;;
51475;SDS011;37554;50.362;7.568;2023-05-07T01:15:12;0.75;;;0.75;;
51475;SDS011;37554;50.362;7.568;2023-05-07T01:17:38;1.00;;;0.90;;
51475;SDS011;37554;50.362;7.568;2023-05-07T01:20:05;0.80;;;0.80;;
51475;SDS011;37554;50.362;7.568;2023-05-07T01:22:32;1.40;;;0.70;;
51475;SDS011;37554;50.362;7.568;2023-05-07T01:24:59;1.13;;;0.82;;
51475;SDS011;37554;50.362;7.568;2023-05-07T01:27:26;2.47;;;0.75;;
51475;SDS011;37554;50.362;7.568;2023-05-07T01:29:52;1.98;;;0.77;;
51475;SDS011;37554;50.362;7.568;2023-05-07T01:32:21;1.00;;;0.80;;
51475;SDS011;37554;50.362;7.568;2023-05-07T01:34:55;2.10;;;0.95;;
51475;SDS011;37554;50.362;7.568;2023-05-07T01:37:23;0.93;;;0.70;;
51475;SDS011;37554;50.362;7.568;2023-05-07T01:39:50;1.75;;;0.90;;
51475;SDS011;37554;50.362;7.568;2023-05-07T01:42:17;1.65;;;0.93;;
51475;SDS011;37554;50.362;7.568;2023-05-07T01:44:42;1.25;;;0.90;;
51475;SDS011;37554;50.362;7.568;2023-05-07T01:47:08;1.15;;;0.70;;
51475;SDS011;37554;50.362;7.568;2023-05-07T01:49:34;1.20;;;0.85;;
51475;SDS011;37554;50.362;7.568;2023-05-07T01:51:59;0.60;;;0.57;;
51475;SDS011;37554;50.362;7.568;2023-05-07T01:54:26;1.17;;;0.90;;
51475;SDS011;37554;50.362;7.568;2023-05-07T01:56:56;1.73;;;0.90;;
51475;SDS011;37554;50.362;7.568;2023-05-07T01:59:22;1.40;;;1.05;;
51475;SDS011;37554;50.362;7.568;2023-05-07T02:01:47;0.95;;;0.80;;
51475;SDS011;37554;50.362;7.568;2023-05-07T02:04:13;1.08;;;0.82;;
51475;SDS011;37554;50.362;7.568;2023-05-07T02:06:38;2.03;;;1.15;;
51475;SDS011;37554;50.362;7.568;2023-05-07T02:09:04;1.00;;;0.90;;
51475;SDS011;37554;50.362;7.568;2023-05-07T02:11:30;1.55;;;1.10;;
51475;SDS011;37554;50.362;7.568;2023-05-07T02:13:55;0.68;;;0.68;;
51475;SDS011;37554;50.362;7.568;2023-05-07T02:16:21;1.23;;;0.75;;
51475;SDS011;37554;50.362;7.568;2023-05-07T02:18:48;1.13;;;0.90;;
51475;SDS011;37554;50.362;7.568;2023-05-07T02:21:13;1.65;;;1.08;;
51475;SDS011;37554;50.362;7.568;2023-05-07T02:23:39;1.60;;;1.10;;
51475;SDS011;37554;50.362;7.568;2023-05-07T02:26:05;1.75;;;0.90;;
51475;SDS011;37554;50.362;7.568;2023-05-07T02:28:30;1.42;;;0.80;;
51475;SDS011;37554;50.362;7.568;2023-05-07T02:30:56;1.05;;;0.85;;
51475;SDS011;37554;50.362;7.568;2023-05-07T02:33:23;1.98;;;1.25;;
51475;SDS011;37554;50.362;7.568;2023-05-07T02:35:49;1.02;;;0.90;;
51475;SDS011;37554;50.362;7.568;2023-05-07T02:38:16;2.30;;;1.00;;
51475;SDS011;37554;50.362;7.568;2023-05-07T02:40:42;2.33;;;1.13;;
51475;SDS011;37554;50.362;7.568;2023-05-07T02:43:08;1.00;;;0.98;;
51475;SDS011;37554;50.362;7.568;2023-05-07T02:45:34;1.55;;;1.00;;
51475;SDS011;37554;50.362;7.568;2023-05-07T02:48:00;1.48;;;0.93;;
51475;SDS011;37554;50.362;7.568;2023-05-07T02:50:25;0.85;;;0.70;;
51475;SDS011;37554;50.362;7.568;2023-05-07T02:52:52;1.63;;;1.00;;
51475;SDS011;37554;50.362;7.568;2023-05-07T02:55:17;1.58;;;0.90;;
51475;SDS011;37554;50.362;7.568;2023-05-07T02:57:43;1.60;;;1.05;;
51475;SDS011;37554;50.362;7.568;2023-05-07T03:02:39;1.20;;;0.85;;
51475;SDS011;37554;50.362;7.568;2023-05-07T03:05:04;2.75;;;1.23;;
51475;SDS011;37554;50.362;7.568;2023-05-07T03:07:31;0.88;;;0.75;;
51475;SDS011;37554;50.362;7.568;2023-05-07T03:09:56;1.17;;;1.08;;
51475;SDS011;37554;50.362;7.568;2023-05-07T03:12:22;1.02;;;0.85;;
51475;SDS011;37554;50.362;7.568;2023-05-07T03:14:47;1.55;;;0.88;;
51475;SDS011;37554;50.362;7.568;2023-05-07T03:17:13;1.05;;;0.90;;
51475;SDS011;37554;50.362;7.568;2023-05-07T03:19:38;1.00;;;0.90;;
51475;SDS011;37554;50.362;7.568;2023-05-07T03:22:04;3.90;;;0.98;;
51475;SDS011;37554;50.362;7.568;2023-05-07T03:24:30;1.33;;;0.90;;
51475;SDS011;37554;50.362;7.568;2023-05-07T03:26:55;1.45;;;0.90;;
51475;SDS011;37554;50.362;7.568;2023-05-07T03:29:22;1.02;;;0.80;;
51475;SDS011;37554;50.362;7.568;2023-05-07T03:31:48;3.97;;;1.00;;
51475;SDS011;37554;50.362;7.568;2023-05-07T03:34:14;1.17;;;0.95;;
51475;SDS011;37554;50.362;7.568;2023-05-07T03:36:41;1.45;;;0.80;;
51475;SDS011;37554;50.362;7.568;2023-05-07T03:39:07;0.85;;;0.80;;
51475;SDS011;37554;50.362;7.568;2023-05-07T03:41:33;1.02;;;0.93;;
51475;SDS011;37554;50.362;7.568;2023-05-07T03:43:58;1.60;;;0.90;;
51475;SDS011;37554;50.362;7.568;2023-05-07T03:46:24;1.63;;;0.88;;
51475;SDS011;37554;50.362;7.568;2023-05-07T03:48:51;1.02;;;0.85;;
51475;SDS011;37554;50.362;7.568;2023-05-07T03:51:17;1.10;;;1.00;;
51475;SDS011;37554;50.362;7.568;2023-05-07T03:53:42;0.80;;;0.80;;
51475;SDS011;37554;50.362;7.568;2023-05-07T03:56:08;1.20;;;0.88;;
51475;SDS011;37554;50.362;7.568;2023-05-07T03:58:34;1.05;;;0.80;;
51475;SDS011;37554;50.362;7.568;2023-05-07T04:01:00;1.42;;;0.95;;
51475;SDS011;37554;50.362;7.568;2023-05-07T04:03:26;0.65;;;0.60;;
51475;SDS011;37554;50.362;7.568;2023-05-07T04:05:51;1.20;;;0.90;;
51475;SDS011;37554;50.362;7.568;2023-05-07T04:08:17;1.70;;;1.17;;
51475;SDS011;37554;50.362;7.568;2023-05-07T04:10:43;1.20;;;0.73;;
51475;SDS011;37554;50.362;7.568;2023-05-07T04:13:08;1.38;;;0.85;;
51475;SDS011;37554;50.362;7.568;2023-05-07T04:15:35;1.15;;;0.80;;
51475;SDS011;37554;50.362;7.568;2023-05-07T04:18:01;2.17;;;0.80;;
51475;SDS011;37554;50.362;7.568;2023-05-07T04:20:26;0.88;;;0.70;;
51475;SDS011;37554;50.362;7.568;2023-05-07T04:22:52;1.33;;;0.80;;
51475;SDS011;37554;50.362;7.568;2023-05-07T04:25:18;1.13;;;0.90;;
51475;SDS011;37554;50.362;7.568;2023-05-07T04:27:43;0.95;;;0.88;;
51475;SDS011;37554;50.362;7.568;2023-05-07T04:30:09;1.63;;;1.00;;
51475;SDS011;37554;50.362;7.568;2023-05-07T04:32:35;1.58;;;0.85;;
51475;SDS011;37554;50.362;7.568;2023-05-07T04:35:02;1.08;;;0.80;;
51475;SDS011;37554;50.362;7.568;2023-05-07T04:37:28;0.60;;;0.57;;
51475;SDS011;37554;50.362;7.568;2023-05-07T04:39:53;1.63;;;0.60;;
51475;SDS011;37554;50.362;7.568;2023-05-07T04:42:19;2.40;;;0.80;;
51475;SDS011;37554;50.362;7.568;2023-05-07T04:44:45;2.08;;;0.70;;
51475;SDS011;37554;50.362;7.568;2023-05-07T04:47:11;1.10;;;0.77;;
51475;SDS011;37554;50.362;7.568;2023-05-07T04:49:37;0.55;;;0.55;;
51475;SDS011;37554;50.362;7.568;2023-05-07T04:52:03;3.17;;;0.82;;
51475;SDS011;37554;50.362;7.568;2023-05-07T04:54:29;0.98;;;0.80;;
51475;SDS011;37554;50.362;7.568;2023-05-07T04:56:54;0.68;;;0.60;;
51475;SDS011;37554;50.362;7.568;2023-05-07T04:59:20;6.40;;;0.90;;
51475;SDS011;37554;50.362;7.568;2023-05-07T05:01:46;1.27;;;0.70;;
51475;SDS011;37554;50.362;7.568;2023-05-07T05:04:12;0.57;;;0.57;;
51475;SDS011;37554;50.362;7.568;2023-05-07T05:06:38;1.65;;;0.75;;
51475;SDS011;37554;50.362;7.568;2023-05-07T05:09:03;1.02;;;0.60;;
51475;SDS011;37554;50.362;7.568;2023-05-07T05:11:30;0.85;;;0.57;;
51475;SDS011;37554;50.362;7.568;2023-05-07T05:13:56;0.68;;;0.68;;
51475;SDS011;37554;50.362;7.568;2023-05-07T05:16:21;1.00;;;0.75;;
51475;SDS011;37554;50.362;7.568;2023-05-07T05:18:47;1.27;;;0.70;;
51475;SDS011;37554;50.362;7.568;2023-05-07T05:21:13;3.17;;;0.70;;
51475;SDS011;37554;50.362;7.568;2023-05-07T05:23:38;1.58;;;0.80;;
51475;SDS011;37554;50.362;7.568;2023-05-07T05:26:04;0.93;;;0.82;;
51475;SDS011;37554;50.362;7.568;2023-05-07T05:28:29;1.85;;;0.70;;
51475;SDS011;37554;50.362;7.568;2023-05-07T05:30:55;0.65;;;0.60;;
51475;SDS011;37554;50.362;7.568;2023-05-07T05:33:21;2.00;;;0.70;;
51475;SDS011;37554;50.362;7.568;2023-05-07T05:35:46;0.70;;;0.60;;
51475;SDS011;37554;50.362;7.568;2023-05-07T05:38:12;2.25;;;0.73;;
51475;SDS011;37554;50.362;7.568;2023-05-07T05:40:38;1.17;;;0.60;;
51475;SDS011;37554;50.362;7.568;2023-05-07T05:43:04;1.85;;;0.80;;
51475;SDS011;37554;50.362;7.568;2023-05-07T05:45:30;1.05;;;0.90;;
51475;SDS011;37554;50.362;7.568;2023-05-07T05:47:56;0.60;;;0.60;;
51475;SDS011;37554;50.362;7.568;2023-05-07T05:50:22;1.13;;;0.60;;
51475;SDS011;37554;50.362;7.568;2023-05-07T05:52:48;0.90;;;0.60;;
51475;SDS011;37554;50.362;7.568;2023-05-07T05:55:13;1.63;;;0.70;;
51475;SDS011;37554;50.362;7.568;2023-05-07T05:57:39;1.30;;;0.70;;
51475;SDS011;37554;50.362;7.568;2023-05-07T06:00:05;3.78;;;0.70;;
51475;SDS011;37554;50.362;7.568;2023-05-07T06:02:32;0.68;;;0.55;;
51475;SDS011;37554;50.362;7.568;2023-05-07T06:04:58;0.98;;;0.75;;
51475;SDS011;37554;50.362;7.568;2023-05-07T06:07:24;0.80;;;0.70;;
51475;SDS011;37554;50.362;7.568;2023-05-07T06:09:49;1.10;;;0.70;;
51475;SDS011;37554;50.362;7.568;2023-05-07T06:12:15;2.00;;;0.73;;
51475;SDS011;37554;50.362;7.568;2023-05-07T06:14:42;1.50;;;0.85;;
51475;SDS011;37554;50.362;7.568;2023-05-07T06:17:08;1.50;;;0.70;;
51475;SDS011;37554;50.362;7.568;2023-05-07T06:19:34;1.00;;;0.63;;
51475;SDS011;37554;50.362;7.568;2023-05-07T06:22:00;0.68;;;0.68;;
51475;SDS011;37554;50.362;7.568;2023-05-07T06:24:26;1.63;;;0.80;;
51475;SDS011;37554;50.362;7.568;2023-05-07T06:26:52;1.98;;;1.60;;
51475;SDS011;37554;50.362;7.568;2023-05-07T06:29:18;2.28;;;1.63;;
51475;SDS011;37554;50.362;7.568;2023-05-07T06:31:43;2.63;;;1.88;;
51475;SDS011;37554;50.362;7.568;2023-05-07T06:34:09;4.65;;;1.83;;
51475;SDS011;37554;50.362;7.568;2023-05-07T06:36:39;1.70;;;1.60;;
51475;SDS011;37554;50.362;7.568;2023-05-07T06:39:05;2.75;;;1.60;;
51475;SDS011;37554;50.362;7.568;2023-05-07T06:41:30;2.08;;;1.55;;
51475;SDS011;37554;50.362;7.568;2023-05-07T06:43:56;1.90;;;1.35;;
51475;SDS011;37554;50.362;7.568;2023-05-07T06:46:22;3.47;;;1.23;;
51475;SDS011;37554;50.362;7.568;2023-05-07T06:48:47;1.48;;;1.13;;
51475;SDS011;37554;50.362;7.568;2023-05-07T06:51:13;1.83;;;0.98;;
51475;SDS011;37554;50.362;7.568;2023-05-07T06:53:38;1.38;;;0.90;;
51475;SDS011;37554;50.362;7.568;2023-05-07T06:56:04;2.03;;;0.80;;
51475;SDS011;37554;50.362;7.568;2023-05-07T06:58:30;1.85;;;1.02;;
51475;SDS011;37554;50.362;7.568;2023-05-07T07:00:55;1.95;;;0.88;;
51475;SDS011;37554;50.362;7.568;2023-05-07T07:03:21;2.72;;;1.00;;
51475;SDS011;37554;50.362;7.568;2023-05-07T07:05:47;1.75;;;0.88;;
51475;SDS011;37554;50.362;7.568;2023-05-07T07:08:12;1.23;;;0.70;;
51475;SDS011;37554;50.362;7.568;2023-05-07T07:10:38;3.47;;;0.80;;
51475;SDS011;37554;50.362;7.568;2023-05-07T07:13:03;1.08;;;0.80;;
51475;SDS011;37554;50.362;7.568;2023-05-07T07:15:29;1.17;;;0.77;;
51475;SDS011;37554;50.362;7.568;2023-05-07T07:17:55;1.80;;;0.90;;
51475;SDS011;37554;50.362;7.568;2023-05-07T07:20:20;2.70;;;0.90;;
51475;SDS011;37554;50.362;7.568;2023-05-07T07:22:46;1.40;;;0.90;;
51475;SDS011;37554;50.362;7.568;2023-05-07T07:25:11;1.10;;;0.90;;
51475;SDS011;37554;50.362;7.568;2023-05-07T07:27:37;0.70;;;0.60;;
51475;SDS011;37554;50.362;7.568;2023-05-07T07:30:05;1.52;;;0.90;;
51475;SDS011;37554;50.362;7.568;2023-05-07T07:32:31;1.05;;;0.70;;
51475;SDS011;37554;50.362;7.568;2023-05-07T07:34:58;1.88;;;0.80;;
51475;SDS011;37554;50.362;7.568;2023-05-07T07:37:23;1.08;;;0.68;;
51475;SDS011;37554;50.362;7.568;2023-05-07T07:39:50;1.17;;;0.50;;
51475;SDS011;37554;50.362;7.568;2023-05-07T07:42:16;0.80;;;0.60;;
51475;SDS011;37554;50.362;7.568;2023-05-07T07:44:41;1.00;;;0.70;;
51475;SDS011;37554;50.362;7.568;2023-05-07T07:47:07;1.00;;;0.80;;
51475;SDS011;37554;50.362;7.568;2023-05-07T07:49:32;0.82;;;0.70;;
51475;SDS011;37554;50.362;7.568;2023-05-07T07:51:58;0.93;;;0.80;;
51475;SDS011;37554;50.362;7.568;2023-05-07T07:54:24;2.97;;;0.70;;
51475;SDS011;37554;50.362;7.568;2023-05-07T07:56:50;0.65;;;0.50;;
51475;SDS011;37554;50.362;7.568;2023-05-07T07:59:16;1.15;;;0.65;;
51475;SDS011;37554;50.362;7.568;2023-05-07T08:01:43;1.15;;;0.60;;
51475;SDS011;37554;50.362;7.568;2023-05-07T08:04:10;1.10;;;0.63;;
51475;SDS011;37554;50.362;7.568;2023-05-07T08:06:35;0.80;;;0.70;;
51475;SDS011;37554;50.362;7.568;2023-05-07T08:09:01;1.58;;;0.60;;
51475;SDS011;37554;50.362;7.568;2023-05-07T08:11:27;2.20;;;0.70;;
51475;SDS011;37554;50.362;7.568;2023-05-07T08:13:53;1.05;;;0.65;;
51475;SDS011;37554;50.362;7.568;2023-05-07T08:16:20;1.30;;;0.70;;
51475;SDS011;37554;50.362;7.568;2023-05-07T08:18:45;0.75;;;0.60;;
51475;SDS011;37554;50.362;7.568;2023-05-07T08:21:11;0.60;;;0.60;;
51475;SDS011;37554;50.362;7.568;2023-05-07T08:23:37;1.88;;;0.63;;
51475;SDS011;37554;50.362;7.568;2023-05-07T08:26:02;1.00;;;0.70;;
51475;SDS011;37554;50.362;7.568;2023-05-07T08:28:28;1.10;;;0.60;;
51475;SDS011;37554;50.362;7.568;2023-05-07T08:30:54;0.75;;;0.70;;
51475;SDS011;37554;50.362;7.568;2023-05-07T08:33:21;0.80;;;0.60;;
51475;SDS011;37554;50.362;7.568;2023-05-07T08:35:47;11.18;;;1.33;;
51475;SDS011;37554;50.362;7.568;2023-05-07T08:38:12;2.85;;;1.20;;
51475;SDS011;37554;50.362;7.568;2023-05-07T08:40:38;2.00;;;0.90;;
51475;SDS011;37554;50.362;7.568;2023-05-07T08:43:05;2.55;;;0.77;;
51475;SDS011;37554;50.362;7.568;2023-05-07T08:45:32;2.55;;;0.88;;
51475;SDS011;37554;50.362;7.568;2023-05-07T08:47:59;2.45;;;0.93;;
51475;SDS011;37554;50.362;7.568;2023-05-07T08:50:28;2.17;;;0.80;;
51475;SDS011;37554;50.362;7.568;2023-05-07T08:52:54;1.45;;;0.70;;
51475;SDS011;37554;50.362;7.568;2023-05-07T08:55:21;2.65;;;0.90;;
51475;SDS011;37554;50.362;7.568;2023-05-07T08:57:47;2.25;;;0.90;;
51475;SDS011;37554;50.362;7.568;2023-05-07T09:00:13;1.42;;;1.00;;
51475;SDS011;37554;50.362;7.568;2023-05-07T09:02:39;3.42;;;0.80;;
51475;SDS011;37554;50.362;7.568;2023-05-07T09:05:05;2.15;;;0.70;;
51475;SDS011;37554;50.362;7.568;2023-05-07T09:07:31;2.08;;;0.90;;
51475;SDS011;37554;50.362;7.568;2023-05-07T09:09:57;1.27;;;1.00;;
51475;SDS011;37554;50.362;7.568;2023-05-07T09:12:23;1.25;;;0.80;;
51475;SDS011;37554;50.362;7.568;2023-05-07T09:14:49;1.45;;;0.80;;
51475;SDS011;37554;50.362;7.568;2023-05-07T09:17:17;1.55;;;0.93;;
51475;SDS011;37554;50.362;7.568;2023-05-07T09:19:46;2.05;;;0.85;;
51475;SDS011;37554;50.362;7.568;2023-05-07T09:22:12;2.15;;;0.85;;
51475;SDS011;37554;50.362;7.568;2023-05-07T09:24:38;2.58;;;1.10;;
51475;SDS011;37554;50.362;7.568;2023-05-07T09:27:04;4.18;;;1.10;;
51475;SDS011;37554;50.362;7.568;2023-05-07T09:29:30;1.50;;;0.98;;
51475;SDS011;37554;50.362;7.568;2023-05-07T09:32:05;3.47;;;0.90;;
51475;SDS011;37554;50.362;7.568;2023-05-07T09:34:32;2.65;;;0.90;;
51475;SDS011;37554;50.362;7.568;2023-05-07T09:37:01;2.00;;;0.90;;
51475;SDS011;37554;50.362;7.568;2023-05-07T09:39:44;3.00;;;1.10;;
51475;SDS011;37554;50.362;7.568;2023-05-07T09:42:11;2.30;;;0.80;;
51475;SDS011;37554;50.362;7.568;2023-05-07T09:44:39;2.47;;;0.75;;
51475;SDS011;37554;50.362;7.568;2023-05-07T09:47:06;3.10;;;0.73;;
51475;SDS011;37554;50.362;7.568;2023-05-07T09:49:37;0.90;;;0.70;;
51475;SDS011;37554;50.362;7.568;2023-05-07T09:52:07;2.35;;;0.73;;
51475;SDS011;37554;50.362;7.568;2023-05-07T09:54:34;0.60;;;0.60;;
51475;SDS011;37554;50.362;7.568;2023-05-07T09:57:02;0.95;;;0.57;;
51475;SDS011;37554;50.362;7.568;2023-05-07T09:59:31;1.13;;;0.60;;
51475;SDS011;37554;50.362;7.568;2023-05-07T10:01:57;2.88;;;0.63;;
51475;SDS011;37554;50.362;7.568;2023-05-07T10:04:27;0.90;;;0.70;;
51475;SDS011;37554;50.362;7.568;2023-05-07T10:06:54;4.28;;;0.70;;
51475;SDS011;37554;50.362;7.568;2023-05-07T10:09:21;2.55;;;0.70;;
51475;SDS011;37554;50.362;7.568;2023-05-07T10:11:50;0.55;;;0.55;;
51475;SDS011;37554;50.362;7.568;2023-05-07T10:14:17;2.13;;;0.70;;
51475;SDS011;37554;50.362;7.568;2023-05-07T10:16:44;1.95;;;0.75;;
51475;SDS011;37554;50.362;7.568;2023-05-07T10:19:11;1.45;;;0.70;;
51475;SDS011;37554;50.362;7.568;2023-05-07T10:21:37;1.10;;;0.70;;
51475;SDS011;37554;50.362;7.568;2023-05-07T10:24:13;2.17;;;0.80;;
51475;SDS011;37554;50.362;7.568;2023-05-07T10:26:45;1.67;;;0.60;;
51475;SDS011;37554;50.362;7.568;2023-05-07T10:29:17;2.85;;;0.70;;
51475;SDS011;37554;50.362;7.568;2023-05-07T10:31:55;0.90;;;0.50;;
51475;SDS011;37554;50.362;7.568;2023-05-07T10:34:35;1.02;;;0.45;;
51475;SDS011;37554;50.362;7.568;2023-05-07T10:37:03;3.40;;;0.70;;
51475;SDS011;37554;50.362;7.568;2023-05-07T10:39:30;1.88;;;0.45;;
51475;SDS011;37554;50.362;7.568;2023-05-07T10:41:56;0.88;;;0.57;;
51475;SDS011;37554;50.362;7.568;2023-05-07T10:44:28;0.82;;;0.50;;
51475;SDS011;37554;50.362;7.568;2023-05-07T10:47:07;1.27;;;0.60;;
51475;SDS011;37554;50.362;7.568;2023-05-07T10:52:12;3.58;;;0.70;;
51475;SDS011;37554;50.362;7.568;2023-05-07T10:54:39;1.13;;;0.60;;
51475;SDS011;37554;50.362;7.568;2023-05-07T11:00:03;1.00;;;0.68;;
51475;SDS011;37554;50.362;7.568;2023-05-07T11:03:14;0.85;;;0.50;;
51475;SDS011;37554;50.362;7.568;2023-05-07T11:05:24;1.67;;;0.70;;
51475;SDS011;37554;50.362;7.568;2023-05-07T11:07:54;1.13;;;0.65;;
51475;SDS011;37554;50.362;7.568;2023-05-07T11:13:13;0.98;;;0.63;;
51475;SDS011;37554;50.362;7.568;2023-05-07T11:15:43;0.93;;;0.60;;
51475;SDS011;37554;50.362;7.568;2023-05-07T11:18:11;0.82;;;0.50;;
51475;SDS011;37554;50.362;7.568;2023-05-07T11:20:51;1.30;;;0.45;;
51475;SDS011;37554;50.362;7.568;2023-05-07T11:26:08;1.10;;;0.50;;
51475;SDS011;37554;50.362;7.568;2023-05-07T11:28:39;1.80;;;0.55;;
51475;SDS011;37554;50.362;7.568;2023-05-07T11:31:06;1.45;;;0.70;;
51475;SDS011;37554;50.362;7.568;2023-05-07T11:33:32;2.35;;;0.73;;
51475;SDS011;37554;50.362;7.568;2023-05-07T11:35:59;1.95;;;0.57;;
51475;SDS011;37554;50.362;7.568;2023-05-07T11:38:26;1.90;;;0.70;;
51475;SDS011;37554;50.362;7.568;2023-05-07T11:40:56;1.23;;;0.68;;
51475;SDS011;37554;50.362;7.568;2023-05-07T11:43:23;1.85;;;0.60;;
51475;SDS011;37554;50.362;7.568;2023-05-07T11:45:49;1.35;;;0.90;;
51475;SDS011;37554;50.362;7.568;2023-05-07T11:48:15;0.77;;;0.60;;
51475;SDS011;37554;50.362;7.568;2023-05-07T11:50:51;1.95;;;0.80;;
51475;SDS011;37554;50.362;7.568;2023-05-07T11:53:18;1.50;;;0.73;;
51475;SDS011;37554;50.362;7.568;2023-05-07T11:55:45;1.58;;;0.80;;
51475;SDS011;37554;50.362;7.568;2023-05-07T11:58:11;2.33;;;0.80;;
51475;SDS011;37554;50.362;7.568;2023-05-07T12:00:38;0.80;;;0.50;;
51475;SDS011;37554;50.362;7.568;2023-05-07T12:03:04;2.08;;;0.80;;
51475;SDS011;37554;50.362;7.568;2023-05-07T12:05:30;2.75;;;0.80;;
51475;SDS011;37554;50.362;7.568;2023-05-07T12:07:58;1.83;;;0.70;;
51475;SDS011;37554;50.362;7.568;2023-05-07T12:10:24;1.27;;;0.80;;
51475;SDS011;37554;50.362;7.568;2023-05-07T12:12:50;1.02;;;0.68;;
51475;SDS011;37554;50.362;7.568;2023-05-07T12:15:22;1.08;;;0.70;;
51475;SDS011;37554;50.362;7.568;2023-05-07T12:17:48;1.42;;;0.80;;
51475;SDS011;37554;50.362;7.568;2023-05-07T12:20:14;1.33;;;0.50;;
51475;SDS011;37554;50.362;7.568;2023-05-07T12:22:40;1.77;;;1.02;;
51475;SDS011;37554;50.362;7.568;2023-05-07T12:25:06;2.13;;;0.60;;
51475;SDS011;37554;50.362;7.568;2023-05-07T12:27:32;2.55;;;0.73;;
51475;SDS011;37554;50.362;7.568;2023-05-07T12:30:03;4.43;;;1.02;;
51475;SDS011;37554;50.362;7.568;2023-05-07T12:32:28;1.95;;;0.80;;
51475;SDS011;37554;50.362;7.568;2023-05-07T12:34:54;1.10;;;0.73;;
51475;SDS011;37554;50.362;7.568;2023-05-07T12:37:23;0.98;;;0.70;;
51475;SDS011;37554;50.362;7.568;2023-05-07T12:40:03;1.90;;;0.90;;
51475;SDS011;37554;50.362;7.568;2023-05-07T12:42:34;2.15;;;0.68;;
51475;SDS011;37554;50.362;7.568;2023-05-07T12:45:07;1.50;;;0.85;;
51475;SDS011;37554;50.362;7.568;2023-05-07T12:47:44;1.05;;;0.80;;
51475;SDS011;37554;50.362;7.568;2023-05-07T12:50:10;0.75;;;0.70;;
51475;SDS011;37554;50.362;7.568;2023-05-07T12:52:36;2.03;;;1.00;;
51475;SDS011;37554;50.362;7.568;2023-05-07T12:55:05;1.33;;;0.93;;
51475;SDS011;37554;50.362;7.568;2023-05-07T12:57:42;1.75;;;0.80;;
51475;SDS011;37554;50.362;7.568;2023-05-07T13:00:10;2.95;;;1.25;;
51475;SDS011;37554;50.362;7.568;2023-05-07T13:02:37;1.17;;;0.77;;
51475;SDS011;37554;50.362;7.568;2023-05-07T13:05:04;2.85;;;0.90;;
51475;SDS011;37554;50.362;7.568;2023-05-07T13:07:30;2.08;;;0.93;;
51475;SDS011;37554;50.362;7.568;2023-05-07T13:09:55;1.88;;;0.88;;
51475;SDS011;37554;50.362;7.568;2023-05-07T13:12:21;2.92;;;1.10;;
51475;SDS011;37554;50.362;7.568;2023-05-07T13:14:46;2.40;;;1.10;;
51475;SDS011;37554;50.362;7.568;2023-05-07T13:17:12;1.40;;;1.00;;
51475;SDS011;37554;50.362;7.568;2023-05-07T13:19:38;1.95;;;0.90;;
51475;SDS011;37554;50.362;7.568;2023-05-07T13:22:03;3.05;;;0.90;;
51475;SDS011;37554;50.362;7.568;2023-05-07T13:24:29;1.80;;;0.90;;
51475;SDS011;37554;50.362;7.568;2023-05-07T13:26:55;2.00;;;1.00;;
51475;SDS011;37554;50.362;7.568;2023-05-07T13:29:20;4.18;;;1.20;;
51475;SDS011;37554;50.362;7.568;2023-05-07T13:31:53;2.85;;;0.93;;
51475;SDS011;37554;50.362;7.568;2023-05-07T13:34:19;2.20;;;0.88;;
51475;SDS011;37554;50.362;7.568;2023-05-07T13:36:45;1.02;;;0.93;;
51475;SDS011;37554;50.362;7.568;2023-05-07T13:39:11;1.10;;;0.85;;
51475;SDS011;37554;50.362;7.568;2023-05-07T13:41:37;1.10;;;1.00;;
51475;SDS011;37554;50.362;7.568;2023-05-07T13:44:02;2.25;;;0.88;;
51475;SDS011;37554;50.362;7.568;2023-05-07T13:46:28;2.30;;;1.00;;
51475;SDS011;37554;50.362;7.568;2023-05-07T13:48:54;1.20;;;0.80;;
51475;SDS011;37554;50.362;7.568;2023-05-07T13:51:20;3.08;;;1.20;;
51475;SDS011;37554;50.362;7.568;2023-05-07T13:53:46;3.13;;;1.00;;
51475;SDS011;37554;50.362;7.568;2023-05-07T13:56:12;2.25;;;1.10;;
51475;SDS011;37554;50.362;7.568;2023-05-07T13:58:39;4.32;;;1.10;;
51475;SDS011;37554;50.362;7.568;2023-05-07T14:01:05;1.83;;;1.15;;
51475;SDS011;37554;50.362;7.568;2023-05-07T14:03:31;1.15;;;1.00;;
51475;SDS011;37554;50.362;7.568;2023-05-07T14:05:58;2.85;;;1.10;;
51475;SDS011;37554;50.362;7.568;2023-05-07T14:08:26;3.08;;;1.13;;
51475;SDS011;37554;50.362;7.568;2023-05-07T14:10:52;4.15;;;1.65;;
51475;SDS011;37554;50.362;7.568;2023-05-07T14:13:17;2.58;;;1.20;;
51475;SDS011;37554;50.362;7.568;2023-05-07T14:15:43;3.65;;;1.38;;
51475;SDS011;37554;50.362;7.568;2023-05-07T14:18:11;3.15;;;1.10;;
51475;SDS011;37554;50.362;7.568;2023-05-07T14:20:37;3.35;;;1.15;;
51475;SDS011;37554;50.362;7.568;2023-05-07T14:23:03;3.13;;;1.20;;
51475;SDS011;37554;50.362;7.568;2023-05-07T14:25:29;11.48;;;1.50;;
51475;SDS011;37554;50.362;7.568;2023-05-07T14:27:54;4.43;;;1.38;;
51475;SDS011;37554;50.362;7.568;2023-05-07T14:30:20;3.88;;;1.35;;
51475;SDS011;37554;50.362;7.568;2023-05-07T14:32:49;4.25;;;1.10;;
51475;SDS011;37554;50.362;7.568;2023-05-07T14:35:15;4.45;;;1.70;;
51475;SDS011;37554;50.362;7.568;2023-05-07T14:37:41;2.00;;;1.17;;
51475;SDS011;37554;50.362;7.568;2023-05-07T14:40:07;6.57;;;1.70;;
51475;SDS011;37554;50.362;7.568;2023-05-07T14:42:33;3.30;;;1.70;;
51475;SDS011;37554;50.362;7.568;2023-05-07T14:44:58;1.90;;;1.38;;
51475;SDS011;37554;50.362;7.568;2023-05-07T14:47:24;3.13;;;1.63;;
51475;SDS011;37554;50.362;7.568;2023-05-07T14:49:49;2.17;;;1.58;;
51475;SDS011;37554;50.362;7.568;2023-05-07T14:52:16;2.05;;;1.23;;
51475;SDS011;37554;50.362;7.568;2023-05-07T14:54:41;2.97;;;1.80;;
51475;SDS011;37554;50.362;7.568;2023-05-07T14:57:08;4.93;;;1.80;;
51475;SDS011;37554;50.362;7.568;2023-05-07T14:59:35;1.85;;;1.70;;